Airfield :
LOGIN :

Register | Disclaimer

   EN    FR    IT 

 










Legend :    VFR   Marginal VFR   IFR   Intensive IFR   Very Intensive IFR
Visi :
Ceiling :
>= 8 km
>= 3000ft
5 to 8 km
1000 to 3000 ft
1500m to 5 km
500 to 1000 ft
800 to 1500m
200 to 500 ft
< 800m
< 200 ft
Symbols :   Thunderstorms  Fog  Heavy snow  Heavy precipitations  Wind > 20 kt
SIGMETs :     Misc.  Thunderstorms  Icing  Turbulence  Mountain Waves  Volcanic Ashes






- Airport Elevation : 1989 ft
- IATA code : KLV


LKKV - Karlovy Vary

CURRENT METAR :
  • 030930Z 27006KT 230V300 CAVOK 21/07 Q1008

EXPIRED METARs :
  • 030900Z 27007KT 170V300 CAVOK 20/06 Q1008
  • 030830Z 24005KT 200V280 9999 FEW040 19/07 Q1008
  • 030800Z 26007KT 210V290 9999 FEW040 19/08 Q1009
  • 030730Z 26006KT 220V290 9999 FEW040 18/08 Q1009
  • 030700Z 29005KT CAVOK 16/08 Q1009

TAF TAF LKKV
Valid from the 03 at 06:00 until the 04 at 12:00 UTC


030500Z 0306/0412 26008KT CAVOK
TEMPO 0309/0400 7000 SHRA SCT035
PROB30
TEMPO 0310/0320 35014G28KT 4000 TSRA SCT020CB
BECMG 0320/0322 11006KT
TEMPO 0409/0412 SHRA SCT030TCU



MET'MAP, your aeronautical weather chart ! - Copyright ORBIFLY December 2007 - Disclaimer

ORBIFLY MET'MAP TEAM :

Programming & Development : Alexandra Zaïnal
Concept & original design : Baudouin d'Aumeries
Assistance for programming : Marc-Olivier Méhu
Technical & hardware support : Manuel Goepfert

Contact : metmap@orbifly.com




SOURCES & CREDITS :

   NOAA